sensor_id;sensor_type;location;lat;lon;timestamp;P1;durP1;ratioP1;P2;durP2;ratioP2
4377;SDS011;2203;53.686;9.994;2023-11-21T00:01:53;26.47;;;14.30;;
4377;SDS011;2203;53.686;9.994;2023-11-21T00:04:19;25.87;;;11.47;;
4377;SDS011;2203;53.686;9.994;2023-11-21T00:06:44;22.77;;;13.23;;
4377;SDS011;2203;53.686;9.994;2023-11-21T00:09:12;26.23;;;12.70;;
4377;SDS011;2203;53.686;9.994;2023-11-21T00:11:38;21.33;;;12.03;;
4377;SDS011;2203;53.686;9.994;2023-11-21T00:14:03;25.40;;;12.60;;
4377;SDS011;2203;53.686;9.994;2023-11-21T00:16:29;22.30;;;10.27;;
4377;SDS011;2203;53.686;9.994;2023-11-21T00:18:54;22.40;;;12.70;;
4377;SDS011;2203;53.686;9.994;2023-11-21T00:21:20;25.57;;;12.63;;
4377;SDS011;2203;53.686;9.994;2023-11-21T00:23:45;35.80;;;14.43;;
4377;SDS011;2203;53.686;9.994;2023-11-21T00:26:10;24.10;;;12.77;;
4377;SDS011;2203;53.686;9.994;2023-11-21T00:28:36;22.20;;;12.23;;
4377;SDS011;2203;53.686;9.994;2023-11-21T00:31:01;21.37;;;12.50;;
4377;SDS011;2203;53.686;9.994;2023-11-21T00:33:27;19.13;;;12.00;;
4377;SDS011;2203;53.686;9.994;2023-11-21T00:35:52;21.60;;;11.97;;
4377;SDS011;2203;53.686;9.994;2023-11-21T00:38:18;26.83;;;12.70;;
4377;SDS011;2203;53.686;9.994;2023-11-21T00:40:45;20.13;;;11.57;;
4377;SDS011;2203;53.686;9.994;2023-11-21T00:43:10;23.13;;;11.27;;
4377;SDS011;2203;53.686;9.994;2023-11-21T00:45:36;24.33;;;13.43;;
4377;SDS011;2203;53.686;9.994;2023-11-21T00:48:01;25.17;;;13.13;;
4377;SDS011;2203;53.686;9.994;2023-11-21T00:50:29;23.80;;;12.73;;
4377;SDS011;2203;53.686;9.994;2023-11-21T00:52:55;24.10;;;12.70;;
4377;SDS011;2203;53.686;9.994;2023-11-21T00:55:20;23.83;;;11.87;;
4377;SDS011;2203;53.686;9.994;2023-11-21T00:57:46;19.50;;;11.37;;
4377;SDS011;2203;53.686;9.994;2023-11-21T01:00:11;18.93;;;10.93;;
4377;SDS011;2203;53.686;9.994;2023-11-21T01:02:43;25.47;;;13.07;;
4377;SDS011;2203;53.686;9.994;2023-11-21T01:05:09;22.27;;;12.70;;
4377;SDS011;2203;53.686;9.994;2023-11-21T01:07:35;24.83;;;11.43;;
4377;SDS011;2203;53.686;9.994;2023-11-21T01:10:02;25.73;;;12.33;;
4377;SDS011;2203;53.686;9.994;2023-11-21T01:12:34;23.43;;;12.00;;
4377;SDS011;2203;53.686;9.994;2023-11-21T01:15:02;22.37;;;13.07;;
4377;SDS011;2203;53.686;9.994;2023-11-21T01:17:28;22.57;;;12.40;;
4377;SDS011;2203;53.686;9.994;2023-11-21T01:19:53;23.27;;;12.43;;
4377;SDS011;2203;53.686;9.994;2023-11-21T01:22:19;26.60;;;14.87;;
4377;SDS011;2203;53.686;9.994;2023-11-21T01:24:50;27.97;;;12.40;;
4377;SDS011;2203;53.686;9.994;2023-11-21T01:27:16;22.60;;;11.80;;
4377;SDS011;2203;53.686;9.994;2023-11-21T01:29:42;21.43;;;11.97;;
4377;SDS011;2203;53.686;9.994;2023-11-21T01:32:07;18.77;;;11.00;;
4377;SDS011;2203;53.686;9.994;2023-11-21T01:34:33;19.03;;;10.07;;
4377;SDS011;2203;53.686;9.994;2023-11-21T01:36:58;17.70;;;9.13;;
4377;SDS011;2203;53.686;9.994;2023-11-21T01:39:24;18.97;;;9.90;;
4377;SDS011;2203;53.686;9.994;2023-11-21T01:41:50;13.97;;;7.87;;
4377;SDS011;2203;53.686;9.994;2023-11-21T01:44:17;17.93;;;9.57;;
4377;SDS011;2203;53.686;9.994;2023-11-21T01:46:44;14.60;;;8.47;;
4377;SDS011;2203;53.686;9.994;2023-11-21T01:49:11;14.07;;;8.73;;
4377;SDS011;2203;53.686;9.994;2023-11-21T01:51:38;17.50;;;9.20;;
4377;SDS011;2203;53.686;9.994;2023-11-21T01:54:05;15.43;;;9.87;;
4377;SDS011;2203;53.686;9.994;2023-11-21T01:56:30;20.83;;;8.40;;
4377;SDS011;2203;53.686;9.994;2023-11-21T01:58:57;18.00;;;8.27;;
4377;SDS011;2203;53.686;9.994;2023-11-21T02:01:22;14.43;;;8.70;;
4377;SDS011;2203;53.686;9.994;2023-11-21T02:03:47;12.87;;;7.00;;
4377;SDS011;2203;53.686;9.994;2023-11-21T02:06:13;16.50;;;7.70;;
4377;SDS011;2203;53.686;9.994;2023-11-21T02:08:39;13.87;;;6.73;;
4377;SDS011;2203;53.686;9.994;2023-11-21T02:11:07;9.90;;;6.87;;
4377;SDS011;2203;53.686;9.994;2023-11-21T02:13:34;9.40;;;6.50;;
4377;SDS011;2203;53.686;9.994;2023-11-21T02:15:59;12.30;;;7.00;;
4377;SDS011;2203;53.686;9.994;2023-11-21T02:18:25;11.93;;;6.03;;
4377;SDS011;2203;53.686;9.994;2023-11-21T02:20:50;11.43;;;7.20;;
4377;SDS011;2203;53.686;9.994;2023-11-21T02:23:16;12.90;;;7.50;;
4377;SDS011;2203;53.686;9.994;2023-11-21T02:25:43;17.40;;;6.60;;
4377;SDS011;2203;53.686;9.994;2023-11-21T02:28:08;13.60;;;7.00;;
4377;SDS011;2203;53.686;9.994;2023-11-21T02:30:34;11.10;;;6.67;;
4377;SDS011;2203;53.686;9.994;2023-11-21T02:33:00;15.70;;;6.73;;
4377;SDS011;2203;53.686;9.994;2023-11-21T02:35:26;9.87;;;6.37;;
4377;SDS011;2203;53.686;9.994;2023-11-21T02:37:51;14.27;;;7.17;;
4377;SDS011;2203;53.686;9.994;2023-11-21T02:40:17;10.37;;;6.00;;
4377;SDS011;2203;53.686;9.994;2023-11-21T02:42:49;10.13;;;6.37;;
4377;SDS011;2203;53.686;9.994;2023-11-21T02:45:16;10.17;;;5.93;;
4377;SDS011;2203;53.686;9.994;2023-11-21T02:47:44;10.53;;;6.20;;
4377;SDS011;2203;53.686;9.994;2023-11-21T02:50:10;9.97;;;5.80;;
4377;SDS011;2203;53.686;9.994;2023-11-21T02:52:35;11.60;;;6.30;;
4377;SDS011;2203;53.686;9.994;2023-11-21T02:55:02;10.77;;;6.00;;
4377;SDS011;2203;53.686;9.994;2023-11-21T02:57:27;11.60;;;6.40;;
4377;SDS011;2203;53.686;9.994;2023-11-21T02:59:53;10.83;;;6.50;;
4377;SDS011;2203;53.686;9.994;2023-11-21T03:02:19;12.80;;;7.83;;
4377;SDS011;2203;53.686;9.994;2023-11-21T03:04:45;14.63;;;7.20;;
4377;SDS011;2203;53.686;9.994;2023-11-21T03:07:10;12.07;;;7.23;;
4377;SDS011;2203;53.686;9.994;2023-11-21T03:09:35;10.87;;;6.70;;
4377;SDS011;2203;53.686;9.994;2023-11-21T03:12:01;14.43;;;7.70;;
4377;SDS011;2203;53.686;9.994;2023-11-21T03:14:27;13.47;;;8.00;;
4377;SDS011;2203;53.686;9.994;2023-11-21T03:16:52;9.80;;;7.07;;
4377;SDS011;2203;53.686;9.994;2023-11-21T03:19:17;14.40;;;8.47;;
4377;SDS011;2203;53.686;9.994;2023-11-21T03:21:43;15.33;;;9.10;;
4377;SDS011;2203;53.686;9.994;2023-11-21T03:24:08;11.07;;;7.60;;
4377;SDS011;2203;53.686;9.994;2023-11-21T03:26:34;14.53;;;8.33;;
4377;SDS011;2203;53.686;9.994;2023-11-21T03:28:59;15.37;;;9.03;;
4377;SDS011;2203;53.686;9.994;2023-11-21T03:31:25;12.63;;;8.37;;
4377;SDS011;2203;53.686;9.994;2023-11-21T03:33:51;16.27;;;8.33;;
4377;SDS011;2203;53.686;9.994;2023-11-21T03:36:18;14.37;;;8.97;;
4377;SDS011;2203;53.686;9.994;2023-11-21T03:38:44;15.53;;;7.97;;
4377;SDS011;2203;53.686;9.994;2023-11-21T03:41:09;12.93;;;8.60;;
4377;SDS011;2203;53.686;9.994;2023-11-21T03:43:35;14.63;;;8.63;;
4377;SDS011;2203;53.686;9.994;2023-11-21T03:46:01;13.00;;;8.20;;
4377;SDS011;2203;53.686;9.994;2023-11-21T03:48:27;16.37;;;8.50;;
4377;SDS011;2203;53.686;9.994;2023-11-21T03:50:52;14.43;;;8.37;;
4377;SDS011;2203;53.686;9.994;2023-11-21T03:53:18;15.40;;;8.67;;
4377;SDS011;2203;53.686;9.994;2023-11-21T03:55:43;21.37;;;8.50;;
4377;SDS011;2203;53.686;9.994;2023-11-21T03:58:09;22.63;;;8.50;;
4377;SDS011;2203;53.686;9.994;2023-11-21T04:00:34;16.73;;;7.40;;
4377;SDS011;2203;53.686;9.994;2023-11-21T04:02:59;13.50;;;8.43;;
4377;SDS011;2203;53.686;9.994;2023-11-21T04:05:25;15.13;;;7.80;;
4377;SDS011;2203;53.686;9.994;2023-11-21T04:07:50;13.37;;;7.87;;
4377;SDS011;2203;53.686;9.994;2023-11-21T04:10:16;11.80;;;7.57;;
4377;SDS011;2203;53.686;9.994;2023-11-21T04:12:42;14.37;;;7.33;;
4377;SDS011;2203;53.686;9.994;2023-11-21T04:15:07;17.27;;;7.70;;
4377;SDS011;2203;53.686;9.994;2023-11-21T04:17:34;15.30;;;7.80;;
4377;SDS011;2203;53.686;9.994;2023-11-21T04:19:59;12.57;;;7.20;;
4377;SDS011;2203;53.686;9.994;2023-11-21T04:22:25;13.47;;;7.10;;
4377;SDS011;2203;53.686;9.994;2023-11-21T04:24:50;10.70;;;7.27;;
4377;SDS011;2203;53.686;9.994;2023-11-21T04:27:16;14.33;;;7.70;;
4377;SDS011;2203;53.686;9.994;2023-11-21T04:29:44;14.17;;;7.60;;
4377;SDS011;2203;53.686;9.994;2023-11-21T04:32:10;11.83;;;7.43;;
4377;SDS011;2203;53.686;9.994;2023-11-21T04:34:35;14.33;;;7.20;;
4377;SDS011;2203;53.686;9.994;2023-11-21T04:37:01;14.10;;;7.00;;
4377;SDS011;2203;53.686;9.994;2023-11-21T04:39:28;17.47;;;7.60;;
4377;SDS011;2203;53.686;9.994;2023-11-21T04:41:53;14.50;;;7.60;;
4377;SDS011;2203;53.686;9.994;2023-11-21T04:44:18;10.60;;;6.73;;
4377;SDS011;2203;53.686;9.994;2023-11-21T04:46:44;11.77;;;7.20;;
4377;SDS011;2203;53.686;9.994;2023-11-21T04:49:09;17.50;;;6.80;;
4377;SDS011;2203;53.686;9.994;2023-11-21T04:51:36;10.17;;;6.43;;
4377;SDS011;2203;53.686;9.994;2023-11-21T04:54:01;13.13;;;7.07;;
4377;SDS011;2203;53.686;9.994;2023-11-21T04:56:27;11.90;;;7.30;;
4377;SDS011;2203;53.686;9.994;2023-11-21T04:58:53;12.87;;;7.60;;
4377;SDS011;2203;53.686;9.994;2023-11-21T05:01:18;13.63;;;7.13;;
4377;SDS011;2203;53.686;9.994;2023-11-21T05:03:44;14.17;;;7.17;;
4377;SDS011;2203;53.686;9.994;2023-11-21T05:06:09;19.47;;;7.33;;
4377;SDS011;2203;53.686;9.994;2023-11-21T05:08:35;9.70;;;6.40;;
4377;SDS011;2203;53.686;9.994;2023-11-21T05:11:02;8.80;;;6.83;;
4377;SDS011;2203;53.686;9.994;2023-11-21T05:13:27;14.53;;;7.93;;
4377;SDS011;2203;53.686;9.994;2023-11-21T05:15:54;14.10;;;7.03;;
4377;SDS011;2203;53.686;9.994;2023-11-21T05:18:20;13.53;;;8.40;;
4377;SDS011;2203;53.686;9.994;2023-11-21T05:20:46;14.30;;;7.30;;
4377;SDS011;2203;53.686;9.994;2023-11-21T05:23:12;11.77;;;7.70;;
4377;SDS011;2203;53.686;9.994;2023-11-21T05:25:37;14.57;;;7.70;;
4377;SDS011;2203;53.686;9.994;2023-11-21T05:28:03;15.57;;;8.50;;
4377;SDS011;2203;53.686;9.994;2023-11-21T05:30:29;12.30;;;7.30;;
4377;SDS011;2203;53.686;9.994;2023-11-21T05:32:54;14.47;;;7.77;;
4377;SDS011;2203;53.686;9.994;2023-11-21T05:35:20;12.43;;;7.50;;
4377;SDS011;2203;53.686;9.994;2023-11-21T05:37:46;12.10;;;8.20;;
4377;SDS011;2203;53.686;9.994;2023-11-21T05:40:12;10.20;;;6.83;;
4377;SDS011;2203;53.686;9.994;2023-11-21T05:42:38;20.97;;;11.30;;
4377;SDS011;2203;53.686;9.994;2023-11-21T05:45:04;10.70;;;6.90;;
4377;SDS011;2203;53.686;9.994;2023-11-21T05:50:06;13.37;;;7.40;;
4377;SDS011;2203;53.686;9.994;2023-11-21T05:52:36;13.20;;;7.33;;
4377;SDS011;2203;53.686;9.994;2023-11-21T05:55:02;12.30;;;7.80;;
4377;SDS011;2203;53.686;9.994;2023-11-21T05:57:29;11.70;;;7.30;;
4377;SDS011;2203;53.686;9.994;2023-11-21T05:59:55;12.90;;;8.27;;
4377;SDS011;2203;53.686;9.994;2023-11-21T06:02:21;11.40;;;6.70;;
4377;SDS011;2203;53.686;9.994;2023-11-21T06:04:46;12.90;;;6.20;;
4377;SDS011;2203;53.686;9.994;2023-11-21T06:07:11;15.07;;;7.33;;
4377;SDS011;2203;53.686;9.994;2023-11-21T06:09:37;12.47;;;6.90;;
4377;SDS011;2203;53.686;9.994;2023-11-21T06:12:02;11.07;;;6.60;;
4377;SDS011;2203;53.686;9.994;2023-11-21T06:14:29;16.13;;;6.60;;
4377;SDS011;2203;53.686;9.994;2023-11-21T06:16:54;11.13;;;6.30;;
4377;SDS011;2203;53.686;9.994;2023-11-21T06:19:21;11.47;;;6.50;;
4377;SDS011;2203;53.686;9.994;2023-11-21T06:21:46;19.63;;;9.93;;
4377;SDS011;2203;53.686;9.994;2023-11-21T06:24:12;10.93;;;6.87;;
4377;SDS011;2203;53.686;9.994;2023-11-21T06:26:38;9.77;;;6.10;;
4377;SDS011;2203;53.686;9.994;2023-11-21T06:29:03;11.40;;;6.50;;
4377;SDS011;2203;53.686;9.994;2023-11-21T06:31:29;8.30;;;5.80;;
4377;SDS011;2203;53.686;9.994;2023-11-21T06:33:55;11.97;;;6.90;;
4377;SDS011;2203;53.686;9.994;2023-11-21T06:36:20;9.87;;;5.67;;
4377;SDS011;2203;53.686;9.994;2023-11-21T06:38:46;10.53;;;6.20;;
4377;SDS011;2203;53.686;9.994;2023-11-21T06:41:11;10.83;;;5.80;;
4377;SDS011;2203;53.686;9.994;2023-11-21T06:43:40;11.60;;;6.17;;
4377;SDS011;2203;53.686;9.994;2023-11-21T06:46:06;14.60;;;6.90;;
4377;SDS011;2203;53.686;9.994;2023-11-21T06:48:31;11.23;;;7.03;;
4377;SDS011;2203;53.686;9.994;2023-11-21T06:50:57;15.77;;;7.40;;
4377;SDS011;2203;53.686;9.994;2023-11-21T06:53:22;10.70;;;6.97;;
4377;SDS011;2203;53.686;9.994;2023-11-21T06:55:48;11.13;;;6.10;;
4377;SDS011;2203;53.686;9.994;2023-11-21T06:58:13;12.27;;;6.70;;
4377;SDS011;2203;53.686;9.994;2023-11-21T07:00:39;10.77;;;5.73;;
4377;SDS011;2203;53.686;9.994;2023-11-21T07:03:05;23.20;;;5.57;;
4377;SDS011;2203;53.686;9.994;2023-11-21T07:05:30;10.90;;;5.43;;
4377;SDS011;2203;53.686;9.994;2023-11-21T07:07:55;13.00;;;5.73;;
4377;SDS011;2203;53.686;9.994;2023-11-21T07:10:21;9.60;;;6.53;;
4377;SDS011;2203;53.686;9.994;2023-11-21T07:12:47;11.33;;;6.17;;
4377;SDS011;2203;53.686;9.994;2023-11-21T07:15:12;8.80;;;5.50;;
4377;SDS011;2203;53.686;9.994;2023-11-21T07:17:38;9.60;;;5.60;;
4377;SDS011;2203;53.686;9.994;2023-11-21T07:20:05;8.70;;;5.73;;
4377;SDS011;2203;53.686;9.994;2023-11-21T07:22:31;12.57;;;6.63;;
4377;SDS011;2203;53.686;9.994;2023-11-21T07:24:57;8.80;;;5.87;;
4377;SDS011;2203;53.686;9.994;2023-11-21T07:27:22;11.97;;;6.83;;
4377;SDS011;2203;53.686;9.994;2023-11-21T07:29:48;10.83;;;6.63;;
4377;SDS011;2203;53.686;9.994;2023-11-21T07:32:14;12.47;;;6.80;;
4377;SDS011;2203;53.686;9.994;2023-11-21T07:34:40;15.63;;;7.73;;
4377;SDS011;2203;53.686;9.994;2023-11-21T07:37:06;23.27;;;8.90;;
4377;SDS011;2203;53.686;9.994;2023-11-21T07:39:32;13.27;;;7.00;;
4377;SDS011;2203;53.686;9.994;2023-11-21T07:41:57;13.57;;;7.17;;
4377;SDS011;2203;53.686;9.994;2023-11-21T07:44:23;10.63;;;6.70;;
4377;SDS011;2203;53.686;9.994;2023-11-21T07:46:49;11.23;;;7.30;;
4377;SDS011;2203;53.686;9.994;2023-11-21T07:49:17;12.80;;;6.60;;
4377;SDS011;2203;53.686;9.994;2023-11-21T07:51:45;14.37;;;6.67;;
4377;SDS011;2203;53.686;9.994;2023-11-21T07:54:11;9.47;;;5.73;;
4377;SDS011;2203;53.686;9.994;2023-11-21T07:56:36;18.30;;;7.30;;
4377;SDS011;2203;53.686;9.994;2023-11-21T07:59:01;12.80;;;6.40;;
4377;SDS011;2203;53.686;9.994;2023-11-21T08:01:27;15.33;;;6.57;;
4377;SDS011;2203;53.686;9.994;2023-11-21T08:03:53;10.50;;;6.33;;
4377;SDS011;2203;53.686;9.994;2023-11-21T08:06:22;12.03;;;5.83;;
4377;SDS011;2203;53.686;9.994;2023-11-21T08:08:48;13.17;;;6.30;;
4377;SDS011;2203;53.686;9.994;2023-11-21T08:11:14;11.27;;;5.80;;
4377;SDS011;2203;53.686;9.994;2023-11-21T08:13:39;17.20;;;5.70;;
4377;SDS011;2203;53.686;9.994;2023-11-21T08:16:04;10.20;;;5.50;;
4377;SDS011;2203;53.686;9.994;2023-11-21T08:18:32;12.50;;;5.63;;
4377;SDS011;2203;53.686;9.994;2023-11-21T08:20:57;11.40;;;5.67;;
4377;SDS011;2203;53.686;9.994;2023-11-21T08:23:23;11.30;;;5.40;;
4377;SDS011;2203;53.686;9.994;2023-11-21T08:25:54;9.33;;;5.67;;
4377;SDS011;2203;53.686;9.994;2023-11-21T08:28:20;10.63;;;5.30;;
4377;SDS011;2203;53.686;9.994;2023-11-21T08:30:51;8.13;;;5.00;;
4377;SDS011;2203;53.686;9.994;2023-11-21T08:33:17;9.60;;;5.33;;
4377;SDS011;2203;53.686;9.994;2023-11-21T08:35:42;19.23;;;5.23;;
4377;SDS011;2203;53.686;9.994;2023-11-21T08:38:08;10.30;;;5.30;;
4377;SDS011;2203;53.686;9.994;2023-11-21T08:40:35;7.30;;;4.20;;
4377;SDS011;2203;53.686;9.994;2023-11-21T08:43:00;9.27;;;3.57;;
4377;SDS011;2203;53.686;9.994;2023-11-21T08:45:26;4.87;;;2.80;;
4377;SDS011;2203;53.686;9.994;2023-11-21T08:47:51;7.87;;;2.90;;
4377;SDS011;2203;53.686;9.994;2023-11-21T08:50:17;4.00;;;2.50;;
4377;SDS011;2203;53.686;9.994;2023-11-21T08:52:43;3.87;;;2.77;;
4377;SDS011;2203;53.686;9.994;2023-11-21T08:55:09;3.50;;;2.83;;
4377;SDS011;2203;53.686;9.994;2023-11-21T08:57:37;3.90;;;2.70;;
4377;SDS011;2203;53.686;9.994;2023-11-21T09:00:04;4.67;;;2.90;;
4377;SDS011;2203;53.686;9.994;2023-11-21T09:02:32;6.10;;;3.10;;
4377;SDS011;2203;53.686;9.994;2023-11-21T09:04:59;4.80;;;3.43;;
4377;SDS011;2203;53.686;9.994;2023-11-21T09:07:24;8.40;;;2.93;;
4377;SDS011;2203;53.686;9.994;2023-11-21T09:09:50;3.33;;;2.57;;
4377;SDS011;2203;53.686;9.994;2023-11-21T09:12:16;3.67;;;2.80;;
4377;SDS011;2203;53.686;9.994;2023-11-21T09:14:42;4.93;;;3.03;;
4377;SDS011;2203;53.686;9.994;2023-11-21T09:17:09;5.60;;;3.10;;
4377;SDS011;2203;53.686;9.994;2023-11-21T09:19:37;13.50;;;3.43;;
4377;SDS011;2203;53.686;9.994;2023-11-21T09:22:03;3.20;;;2.40;;
4377;SDS011;2203;53.686;9.994;2023-11-21T09:24:30;4.57;;;3.07;;
4377;SDS011;2203;53.686;9.994;2023-11-21T09:26:58;4.50;;;3.20;;
4377;SDS011;2203;53.686;9.994;2023-11-21T09:29:24;4.00;;;3.10;;
4377;SDS011;2203;53.686;9.994;2023-11-21T09:31:53;4.80;;;2.60;;
4377;SDS011;2203;53.686;9.994;2023-11-21T09:34:20;4.93;;;3.13;;
4377;SDS011;2203;53.686;9.994;2023-11-21T09:36:45;5.80;;;3.30;;
4377;SDS011;2203;53.686;9.994;2023-11-21T09:39:11;7.20;;;3.00;;
4377;SDS011;2203;53.686;9.994;2023-11-21T09:41:52;4.00;;;2.93;;
4377;SDS011;2203;53.686;9.994;2023-11-21T09:44:22;5.27;;;2.90;;
4377;SDS011;2203;53.686;9.994;2023-11-21T09:47:00;3.40;;;2.77;;
4377;SDS011;2203;53.686;9.994;2023-11-21T09:49:27;8.50;;;3.10;;
4377;SDS011;2203;53.686;9.994;2023-11-21T09:51:54;3.03;;;2.60;;
4377;SDS011;2203;53.686;9.994;2023-11-21T09:54:23;3.47;;;2.30;;
4377;SDS011;2203;53.686;9.994;2023-11-21T09:56:48;5.07;;;2.53;;
4377;SDS011;2203;53.686;9.994;2023-11-21T09:59:15;3.07;;;2.07;;
4377;SDS011;2203;53.686;9.994;2023-11-21T10:01:41;2.97;;;2.40;;
4377;SDS011;2203;53.686;9.994;2023-11-21T10:04:07;4.30;;;2.70;;
4377;SDS011;2203;53.686;9.994;2023-11-21T10:06:37;10.83;;;2.33;;
4377;SDS011;2203;53.686;9.994;2023-11-21T10:09:04;2.43;;;2.20;;
4377;SDS011;2203;53.686;9.994;2023-11-21T10:11:36;2.40;;;1.87;;
4377;SDS011;2203;53.686;9.994;2023-11-21T10:14:04;5.43;;;2.20;;
4377;SDS011;2203;53.686;9.994;2023-11-21T10:16:30;4.10;;;2.03;;
4377;SDS011;2203;53.686;9.994;2023-11-21T10:18:57;4.00;;;1.90;;
4377;SDS011;2203;53.686;9.994;2023-11-21T10:21:23;2.87;;;2.33;;
4377;SDS011;2203;53.686;9.994;2023-11-21T10:23:49;5.00;;;2.30;;
4377;SDS011;2203;53.686;9.994;2023-11-21T10:26:16;2.63;;;2.43;;
4377;SDS011;2203;53.686;9.994;2023-11-21T10:28:55;3.07;;;2.10;;
4377;SDS011;2203;53.686;9.994;2023-11-21T10:31:23;3.73;;;2.40;;
4377;SDS011;2203;53.686;9.994;2023-11-21T10:33:50;3.00;;;1.80;;
4377;SDS011;2203;53.686;9.994;2023-11-21T10:36:26;4.33;;;1.83;;
4377;SDS011;2203;53.686;9.994;2023-11-21T10:38:53;5.23;;;1.80;;
4377;SDS011;2203;53.686;9.994;2023-11-21T10:41:18;3.10;;;2.23;;
4377;SDS011;2203;53.686;9.994;2023-11-21T10:43:45;4.53;;;2.10;;
4377;SDS011;2203;53.686;9.994;2023-11-21T10:46:10;4.13;;;2.20;;
4377;SDS011;2203;53.686;9.994;2023-11-21T10:48:35;2.30;;;2.07;;
4377;SDS011;2203;53.686;9.994;2023-11-21T10:51:06;3.13;;;2.07;;
4377;SDS011;2203;53.686;9.994;2023-11-21T10:53:32;10.00;;;3.40;;
4377;SDS011;2203;53.686;9.994;2023-11-21T10:56:02;2.70;;;1.73;;
4377;SDS011;2203;53.686;9.994;2023-11-21T10:58:32;2.93;;;2.27;;
4377;SDS011;2203;53.686;9.994;2023-11-21T11:00:58;2.97;;;2.57;;
4377;SDS011;2203;53.686;9.994;2023-11-21T11:03:24;3.83;;;2.43;;
4377;SDS011;2203;53.686;9.994;2023-11-21T11:05:50;2.63;;;2.30;;
4377;SDS011;2203;53.686;9.994;2023-11-21T11:08:17;4.40;;;2.17;;
4377;SDS011;2203;53.686;9.994;2023-11-21T11:10:45;9.90;;;2.00;;
4377;SDS011;2203;53.686;9.994;2023-11-21T11:13:12;2.93;;;2.10;;
4377;SDS011;2203;53.686;9.994;2023-11-21T11:15:40;3.13;;;2.20;;
4377;SDS011;2203;53.686;9.994;2023-11-21T11:18:05;5.53;;;2.00;;
4377;SDS011;2203;53.686;9.994;2023-11-21T11:20:35;6.73;;;2.67;;
4377;SDS011;2203;53.686;9.994;2023-11-21T11:23:15;5.23;;;2.50;;
4377;SDS011;2203;53.686;9.994;2023-11-21T11:28:44;3.10;;;2.20;;
4377;SDS011;2203;53.686;9.994;2023-11-21T11:33:57;3.80;;;2.20;;
4377;SDS011;2203;53.686;9.994;2023-11-21T11:38:59;5.00;;;2.33;;
4377;SDS011;2203;53.686;9.994;2023-11-21T11:41:27;4.03;;;2.07;;
4377;SDS011;2203;53.686;9.994;2023-11-21T11:43:57;4.40;;;2.17;;
4377;SDS011;2203;53.686;9.994;2023-11-21T11:49:07;4.40;;;2.20;;
4377;SDS011;2203;53.686;9.994;2023-11-21T11:51:33;4.23;;;2.30;;
4377;SDS011;2203;53.686;9.994;2023-11-21T11:54:00;5.37;;;2.30;;
4377;SDS011;2203;53.686;9.994;2023-11-21T11:56:27;4.13;;;2.30;;
4377;SDS011;2203;53.686;9.994;2023-11-21T11:58:59;5.00;;;2.63;;
4377;SDS011;2203;53.686;9.994;2023-11-21T12:01:27;6.00;;;2.87;;
4377;SDS011;2203;53.686;9.994;2023-11-21T12:07:44;3.57;;;2.80;;
4377;SDS011;2203;53.686;9.994;2023-11-21T12:11:11;4.40;;;2.97;;
4377;SDS011;2203;53.686;9.994;2023-11-21T12:14:35;10.83;;;2.40;;
4377;SDS011;2203;53.686;9.994;2023-11-21T12:18:00;4.27;;;2.80;;
4377;SDS011;2203;53.686;9.994;2023-11-21T12:21:24;7.50;;;3.57;;
4377;SDS011;2203;53.686;9.994;2023-11-21T12:24:48;7.53;;;2.13;;
4377;SDS011;2203;53.686;9.994;2023-11-21T12:28:12;6.73;;;2.63;;
4377;SDS011;2203;53.686;9.994;2023-11-21T12:30:38;5.50;;;2.80;;
4377;SDS011;2203;53.686;9.994;2023-11-21T12:33:04;16.60;;;2.80;;
4377;SDS011;2203;53.686;9.994;2023-11-21T12:35:32;5.43;;;2.90;;
4377;SDS011;2203;53.686;9.994;2023-11-21T12:38:03;4.50;;;2.43;;
4377;SDS011;2203;53.686;9.994;2023-11-21T12:40:29;5.90;;;2.83;;
4377;SDS011;2203;53.686;9.994;2023-11-21T12:42:56;5.30;;;2.30;;
4377;SDS011;2203;53.686;9.994;2023-11-21T12:45:26;3.33;;;2.40;;
4377;SDS011;2203;53.686;9.994;2023-11-21T12:47:59;6.27;;;2.93;;
4377;SDS011;2203;53.686;9.994;2023-11-21T12:50:28;4.10;;;2.30;;
4377;SDS011;2203;53.686;9.994;2023-11-21T12:53:03;3.77;;;2.50;;
4377;SDS011;2203;53.686;9.994;2023-11-21T12:55:34;8.83;;;2.43;;
4377;SDS011;2203;53.686;9.994;2023-11-21T12:58:03;2.27;;;2.07;;
4377;SDS011;2203;53.686;9.994;2023-11-21T13:00:39;3.10;;;2.53;;
4377;SDS011;2203;53.686;9.994;2023-11-21T13:03:07;3.10;;;2.77;;
4377;SDS011;2203;53.686;9.994;2023-11-21T13:05:34;2.80;;;2.30;;
4377;SDS011;2203;53.686;9.994;2023-11-21T13:08:04;4.60;;;3.17;;
4377;SDS011;2203;53.686;9.994;2023-11-21T13:10:33;5.10;;;2.27;;
4377;SDS011;2203;53.686;9.994;2023-11-21T13:13:01;5.80;;;2.97;;
4377;SDS011;2203;53.686;9.994;2023-11-21T13:15:30;2.70;;;2.03;;
4377;SDS011;2203;53.686;9.994;2023-11-21T13:17:56;3.47;;;2.37;;
4377;SDS011;2203;53.686;9.994;2023-11-21T13:20:22;3.80;;;2.47;;
4377;SDS011;2203;53.686;9.994;2023-11-21T13:22:50;3.50;;;2.43;;
4377;SDS011;2203;53.686;9.994;2023-11-21T13:25:23;5.07;;;2.97;;
4377;SDS011;2203;53.686;9.994;2023-11-21T13:27:49;2.63;;;2.43;;
4377;SDS011;2203;53.686;9.994;2023-11-21T13:30:15;5.10;;;2.70;;
4377;SDS011;2203;53.686;9.994;2023-11-21T13:32:44;5.20;;;2.70;;
4377;SDS011;2203;53.686;9.994;2023-11-21T13:35:11;5.53;;;3.20;;
4377;SDS011;2203;53.686;9.994;2023-11-21T13:37:44;4.33;;;2.23;;
4377;SDS011;2203;53.686;9.994;2023-11-21T13:40:10;5.20;;;2.60;;
4377;SDS011;2203;53.686;9.994;2023-11-21T13:42:40;6.73;;;2.47;;
4377;SDS011;2203;53.686;9.994;2023-11-21T13:45:06;5.50;;;2.50;;
4377;SDS011;2203;53.686;9.994;2023-11-21T13:47:32;6.10;;;3.20;;
4377;SDS011;2203;53.686;9.994;2023-11-21T13:49:59;3.63;;;2.50;;
4377;SDS011;2203;53.686;9.994;2023-11-21T13:52:25;2.80;;;2.50;;
4377;SDS011;2203;53.686;9.994;2023-11-21T13:54:52;4.17;;;2.67;;
4377;SDS011;2203;53.686;9.994;2023-11-21T13:57:18;6.73;;;2.30;;
4377;SDS011;2203;53.686;9.994;2023-11-21T13:59:45;3.47;;;2.90;;
4377;SDS011;2203;53.686;9.994;2023-11-21T14:02:11;7.83;;;2.60;;
4377;SDS011;2203;53.686;9.994;2023-11-21T14:04:42;11.33;;;2.20;;
4377;SDS011;2203;53.686;9.994;2023-11-21T14:07:21;6.53;;;2.57;;
4377;SDS011;2203;53.686;9.994;2023-11-21T14:10:00;4.63;;;2.40;;
4377;SDS011;2203;53.686;9.994;2023-11-21T14:12:28;7.50;;;2.90;;
4377;SDS011;2203;53.686;9.994;2023-11-21T14:14:58;3.50;;;2.40;;
4377;SDS011;2203;53.686;9.994;2023-11-21T14:17:25;5.60;;;2.20;;
4377;SDS011;2203;53.686;9.994;2023-11-21T14:19:50;8.27;;;2.90;;
4377;SDS011;2203;53.686;9.994;2023-11-21T14:22:15;2.87;;;1.93;;
4377;SDS011;2203;53.686;9.994;2023-11-21T14:24:42;3.00;;;1.93;;
4377;SDS011;2203;53.686;9.994;2023-11-21T14:27:11;3.10;;;2.23;;
4377;SDS011;2203;53.686;9.994;2023-11-21T14:29:37;5.33;;;2.00;;
4377;SDS011;2203;53.686;9.994;2023-11-21T14:32:04;3.43;;;2.20;;
4377;SDS011;2203;53.686;9.994;2023-11-21T14:34:30;3.03;;;1.83;;
4377;SDS011;2203;53.686;9.994;2023-11-21T14:36:56;2.07;;;1.83;;
4377;SDS011;2203;53.686;9.994;2023-11-21T14:39:22;4.47;;;2.43;;
4377;SDS011;2203;53.686;9.994;2023-11-21T14:41:53;5.27;;;2.30;;
4377;SDS011;2203;53.686;9.994;2023-11-21T14:44:20;3.17;;;2.23;;
4377;SDS011;2203;53.686;9.994;2023-11-21T14:46:50;4.20;;;2.53;;
4377;SDS011;2203;53.686;9.994;2023-11-21T14:49:16;4.43;;;2.80;;
4377;SDS011;2203;53.686;9.994;2023-11-21T14:51:46;5.00;;;2.80;;
4377;SDS011;2203;53.686;9.994;2023-11-21T14:54:33;2.57;;;2.07;;
4377;SDS011;2203;53.686;9.994;2023-11-21T14:57:21;3.17;;;2.17;;
4377;SDS011;2203;53.686;9.994;2023-11-21T14:59:48;4.83;;;2.43;;
4377;SDS011;2203;53.686;9.994;2023-11-21T15:02:16;6.00;;;2.37;;
4377;SDS011;2203;53.686;9.994;2023-11-21T15:05:07;4.20;;;2.27;;
4377;SDS011;2203;53.686;9.994;2023-11-21T15:07:39;4.90;;;2.30;;
4377;SDS011;2203;53.686;9.994;2023-11-21T15:10:04;3.30;;;2.20;;
4377;SDS011;2203;53.686;9.994;2023-11-21T15:12:36;2.93;;;2.30;;
4377;SDS011;2203;53.686;9.994;2023-11-21T15:15:03;2.40;;;2.10;;
4377;SDS011;2203;53.686;9.994;2023-11-21T15:17:29;3.40;;;2.10;;
4377;SDS011;2203;53.686;9.994;2023-11-21T15:19:57;5.10;;;3.70;;
4377;SDS011;2203;53.686;9.994;2023-11-21T15:22:22;6.60;;;3.63;;
4377;SDS011;2203;53.686;9.994;2023-11-21T15:24:48;4.10;;;2.77;;
4377;SDS011;2203;53.686;9.994;2023-11-21T15:27:14;5.70;;;3.60;;